createdAt,value
2023-02-18T00:10:28.211Z,982.88
2023-02-18T00:22:28.732Z,982.86
2023-02-18T00:34:29.182Z,982.80
2023-02-18T00:46:29.625Z,982.79
2023-02-18T00:58:30.055Z,982.65
2023-02-18T01:10:30.518Z,982.61
2023-02-18T01:22:30.980Z,982.64
2023-02-18T01:34:31.415Z,982.55
2023-02-18T01:46:31.877Z,982.29
2023-02-18T01:58:32.338Z,982.22
2023-02-18T02:10:32.814Z,982.18
2023-02-18T02:22:33.204Z,982.13
2023-02-18T02:34:33.658Z,982.02
2023-02-18T02:46:34.157Z,982.07
2023-02-18T02:58:34.606Z,982.07
2023-02-18T03:10:35.040Z,981.95
2023-02-18T03:22:35.487Z,982.04
2023-02-18T03:34:35.938Z,982.11
2023-02-18T03:46:36.375Z,982.18
2023-02-18T03:58:36.817Z,982.35
2023-02-18T04:10:37.306Z,982.44
2023-02-18T04:22:37.747Z,982.46
2023-02-18T04:34:38.230Z,982.38
2023-02-18T04:46:38.630Z,982.44
2023-02-18T04:58:39.074Z,982.46
2023-02-18T05:10:39.515Z,982.41
2023-02-18T05:22:40.057Z,982.53
2023-02-18T05:34:40.450Z,982.56
2023-02-18T05:46:40.999Z,982.81
2023-02-18T05:58:41.352Z,982.94
2023-02-18T06:10:41.857Z,982.97
2023-02-18T06:22:42.300Z,983.03
2023-02-18T06:34:42.743Z,982.97
2023-02-18T06:46:43.205Z,983.01
2023-02-18T06:58:43.612Z,982.96
2023-02-18T07:10:44.062Z,983.03
2023-02-18T07:22:44.505Z,983.14
2023-02-18T07:34:44.975Z,983.03
2023-02-18T07:46:47.382Z,983.15
2023-02-18T07:58:45.900Z,983.09
2023-02-18T08:10:46.306Z,983.17
2023-02-18T08:22:46.798Z,983.13
2023-02-18T08:34:47.244Z,983.06
2023-02-18T08:46:47.762Z,983.07
2023-02-18T08:58:48.152Z,982.93
2023-02-18T09:10:48.624Z,982.81
2023-02-18T09:22:49.061Z,983.08
2023-02-18T09:34:49.514Z,982.93
2023-02-18T09:46:49.955Z,983.06
2023-02-18T09:58:50.409Z,983.01
2023-02-18T10:10:50.931Z,982.88
2023-02-18T10:22:51.286Z,982.73
2023-02-18T10:34:51.784Z,982.32
2023-02-18T10:46:52.317Z,982.23
2023-02-18T10:58:52.697Z,982.01
2023-02-18T11:10:53.168Z,981.54
2023-02-18T11:22:53.611Z,981.58
2023-02-18T11:34:54.066Z,981.25
2023-02-18T11:46:54.555Z,980.89
2023-02-18T11:58:54.990Z,980.55
2023-02-18T12:10:55.440Z,980.23
2023-02-18T12:22:55.897Z,980.17
2023-02-18T12:34:56.375Z,979.93
2023-02-18T12:46:56.825Z,979.77
2023-02-18T12:58:57.266Z,979.48
2023-02-18T13:10:57.726Z,979.26
2023-02-18T13:22:58.212Z,979.18
2023-02-18T13:34:58.604Z,979.09
2023-02-18T13:46:59.039Z,978.93
2023-02-18T13:58:59.514Z,978.71
2023-02-18T14:10:59.970Z,978.62
2023-02-18T14:23:00.463Z,978.58
2023-02-18T14:35:00.929Z,978.33
2023-02-18T14:47:01.345Z,978.29
2023-02-18T14:59:01.858Z,978.18
2023-02-18T15:11:02.289Z,978.01
2023-02-18T15:23:02.753Z,977.88
2023-02-18T15:35:03.173Z,977.77
2023-02-18T15:47:03.633Z,977.46
2023-02-18T15:59:04.090Z,977.50
2023-02-18T16:11:04.529Z,977.33
2023-02-18T16:23:04.981Z,977.37
2023-02-18T16:35:05.462Z,977.58
2023-02-18T16:47:05.916Z,977.69
2023-02-18T16:59:06.318Z,977.74
2023-02-18T17:11:06.837Z,977.98
2023-02-18T17:23:07.324Z,978.22
2023-02-18T17:35:07.727Z,978.31
2023-02-18T17:47:08.177Z,978.36
2023-02-18T17:59:08.624Z,978.49
2023-02-18T18:11:09.446Z,978.76
2023-02-18T18:23:09.534Z,978.61
2023-02-18T18:35:09.988Z,978.63
2023-02-18T18:47:10.438Z,978.90
2023-02-18T18:59:10.904Z,978.83
2023-02-18T19:11:11.624Z,978.71
2023-02-18T19:23:11.836Z,978.88
2023-02-18T19:35:12.253Z,978.97
2023-02-18T19:47:12.703Z,979.06
2023-02-18T19:59:13.168Z,979.00
2023-02-18T20:11:13.600Z,979.31
2023-02-18T20:23:14.054Z,979.41
2023-02-18T20:35:14.526Z,979.57
2023-02-18T20:47:14.976Z,979.72
2023-02-18T20:59:15.441Z,979.76
2023-02-18T21:11:15.878Z,979.90
2023-02-18T21:23:16.366Z,979.89
2023-02-18T21:35:16.805Z,980.09
2023-02-18T21:47:17.272Z,980.13
2023-02-18T21:59:17.717Z,980.24
2023-02-18T22:11:18.191Z,980.34
2023-02-18T22:23:18.614Z,980.37
2023-02-18T22:35:19.045Z,980.40
2023-02-18T22:47:19.544Z,980.45
2023-02-18T22:59:20.000Z,980.48
2023-02-18T23:11:20.433Z,980.63
2023-02-18T23:23:20.864Z,980.61
2023-02-18T23:35:21.335Z,980.73
2023-02-18T23:47:21.793Z,980.63
2023-02-18T23:59:22.230Z,980.64
